Time;durP1;ratioP1;P1;durP2;ratioP2;P2;SDS_P1;SDS_P2;PMS_P1;PMS_P2;Temp;Humidity;BMP_temperature;BMP_pressure;BME280_temperature;BME280_humidity;BME280_pressure;Samples;Min_cycle;Max_cycle;Signal;HPM_P1;HPM_P2
2023/02/24 00:01:36;;;;;;;4.65;2.15;;;;;;;17.01;49.94;101705.38;6228327;22;20098;-88
2023/02/24 00:04:06;;;;;;;6.35;2.33;;;;;;;17.01;50.04;101697.56;6203880;22;20012;-88
2023/02/24 00:06:37;;;;;;;7.03;2.78;;;;;;;17.02;49.94;101699.28;6228612;22;20007;-89
2023/02/24 00:09:08;;;;;;;5.65;2.40;;;;;;;17.02;49.74;101700.16;6228706;22;20011;-88
2023/02/24 00:11:35;;;;;;;5.38;2.08;;;;;;;17.02;49.96;101694.94;6252355;22;20062;-88
2023/02/24 00:14:04;;;;;;;4.00;2.08;;;;;;;17.00;49.76;101688.00;6252726;22;20099;-89
2023/02/24 00:16:31;;;;;;;4.40;1.90;;;;;;;17.01;49.81;101689.75;6252391;22;20027;-88
2023/02/24 00:18:59;;;;;;;4.95;2.40;;;;;;;17.01;49.64;101682.81;6252661;22;20030;-87
2023/02/24 00:21:26;;;;;;;3.92;2.20;;;;;;;17.00;49.73;101677.59;6247250;22;20083;-88
2023/02/24 00:23:52;;;;;;;4.93;2.20;;;;;;;17.01;49.86;101674.16;6252835;22;20117;-89
2023/02/24 00:26:21;;;;;;;4.65;2.10;;;;;;;17.00;49.74;101670.66;6227392;22;20393;-88
2023/02/24 00:28:49;;;;;;;3.83;2.10;;;;;;;17.00;49.66;101668.06;6252031;22;20007;-88
2023/02/24 00:31:17;;;;;;;3.55;1.88;;;;;;;16.99;49.66;101663.75;6227348;22;20016;-88
2023/02/24 00:33:43;;;;;;;4.07;1.65;;;;;;;16.98;49.62;101663.72;6252200;22;20030;-87
2023/02/24 00:36:14;;;;;;;4.07;2.00;;;;;;;16.98;49.73;101661.13;6252466;22;20526;-89
2023/02/24 00:38:45;;;;;;;5.05;1.80;;;;;;;16.97;49.57;101649.00;6252827;22;20083;-89
2023/02/24 00:41:21;;;;;;;4.82;2.22;;;;;;;16.95;49.74;101653.31;6228275;22;20012;-88
2023/02/24 00:43:49;;;;;;;4.78;2.10;;;;;;;16.95;49.84;101648.13;6252063;22;20031;-87
2023/02/24 00:46:27;;;;;;;3.55;2.10;;;;;;;16.94;49.63;101639.44;6252230;22;20254;-88
2023/02/24 00:48:55;;;;;;;4.70;2.20;;;;;;;16.95;49.61;101641.19;6251899;22;20083;-88
2023/02/24 00:51:23;;;;;;;4.53;2.20;;;;;;;16.96;49.70;101645.53;6202396;22;20015;-88
2023/02/24 00:53:57;;;;;;;3.38;2.00;;;;;;;16.93;49.38;101632.50;6279906;22;20032;-87
2023/02/24 00:56:25;;;;;;;3.85;1.90;;;;;;;16.94;49.52;101630.75;6202022;22;20345;-87
2023/02/24 00:58:55;;;;;;;4.78;1.90;;;;;;;16.93;49.61;101632.50;6252766;22;20014;-89
2023/02/24 01:01:24;;;;;;;3.72;1.83;;;;;;;16.92;49.61;101622.97;6252215;22;20394;-88
2023/02/24 01:03:59;;;;;;;4.45;1.88;;;;;;;16.92;49.45;101619.47;6252451;22;20320;-89
2023/02/24 01:06:28;;;;;;;3.17;2.10;;;;;;;16.92;49.42;101622.97;6228936;22;20107;-88
2023/02/24 01:08:55;;;;;;;3.90;1.77;;;;;;;16.92;49.42;101601.28;6252427;22;20436;-89
2023/02/24 01:12:16;;;;;;;3.72;1.70;;;;;;;16.92;49.54;101601.28;6251912;22;20012;-87
2023/02/24 01:14:25;;;;;;;3.95;1.92;;;;;;;16.91;49.43;101594.34;6278696;22;20007;-87
2023/02/24 01:16:52;;;;;;;2.63;1.40;;;;;;;16.89;49.45;101596.06;6251910;22;20068;-89
2023/02/24 01:19:34;;;;;;;4.00;1.88;;;;;;;16.91;49.54;101584.81;6226435;22;20012;-88
2023/02/24 01:22:08;;;;;;;2.85;1.38;;;;;;;16.92;49.40;101580.47;6251657;22;20004;-88
2023/02/24 01:24:37;;;;;;;4.03;1.70;;;;;;;16.91;49.54;101577.03;6252578;22;19995;-89
2023/02/24 01:27:13;;;;;;;3.50;1.75;;;;;;;16.89;49.43;101562.28;6251885;22;19999;-88
2023/02/24 01:29:39;;;;;;;2.60;1.50;;;;;;;16.91;49.14;101552.75;6204894;22;20007;-88
2023/02/24 01:32:11;;;;;;;2.97;1.33;;;;;;;16.88;49.28;101551.03;6252562;22;20125;-87
2023/02/24 01:34:37;;;;;;;3.17;1.85;;;;;;;16.90;49.41;101546.69;6203877;22;20004;-89
2023/02/24 01:37:03;;;;;;;4.93;2.03;;;;;;;16.91;49.48;101548.41;6252720;22;20007;-89
2023/02/24 01:39:29;;;;;;;4.47;2.08;;;;;;;16.89;49.04;101544.94;6227151;22;20343;-89
2023/02/24 01:42:00;;;;;;;3.00;1.50;;;;;;;16.90;49.35;101544.09;6227143;22;20098;-88
2023/02/24 01:44:32;;;;;;;4.00;1.88;;;;;;;16.90;49.18;101533.69;6227218;22;20000;-89
2023/02/24 01:47:01;;;;;;;3.40;1.65;;;;;;;16.89;49.26;101536.28;6252146;22;20068;-88
2023/02/24 01:49:33;;;;;;;3.40;1.67;;;;;;;16.90;49.50;101545.81;6253056;22;20010;-89
2023/02/24 01:52:07;;;;;;;3.38;1.55;;;;;;;16.89;49.06;101526.75;6252036;22;20011;-89
2023/02/24 01:54:41;;;;;;;3.90;1.63;;;;;;;16.89;49.08;101520.69;6251890;22;20452;-88
2023/02/24 01:57:09;;;;;;;3.30;1.50;;;;;;;16.88;49.33;101517.22;6251845;22;20339;-88
2023/02/24 01:59:36;;;;;;;3.83;1.60;;;;;;;16.87;49.23;101515.47;6251617;22;20059;-89
2023/02/24 02:02:05;;;;;;;3.08;1.30;;;;;;;16.85;48.99;101515.50;6226463;22;20028;-89
2023/02/24 02:04:41;;;;;;;2.30;1.25;;;;;;;16.86;49.18;101513.75;6251956;22;19999;-88
2023/02/24 02:07:10;;;;;;;2.83;1.50;;;;;;;16.86;49.29;101508.56;6251820;22;20010;-89
2023/02/24 02:09:37;;;;;;;3.47;1.40;;;;;;;16.86;49.36;101505.94;6251950;22;20012;-89
2023/02/24 02:12:02;;;;;;;3.67;1.65;;;;;;;16.86;49.27;101498.16;6226450;22;20008;-89
2023/02/24 02:14:30;;;;;;;3.60;1.55;;;;;;;16.85;49.24;101486.00;6201684;22;20376;-88
2023/02/24 02:17:17;;;;;;;3.25;1.38;;;;;;;16.86;49.27;101495.56;6252455;22;20000;-89
2023/02/24 02:20:21;;;;;;;3.47;1.40;;;;;;;16.86;48.99;101483.41;6257304;22;20003;-90
2023/02/24 02:23:26;;;;;;;2.38;1.10;;;;;;;16.85;49.27;101478.19;6270002;22;20007;-84
2023/02/24 02:26:17;;;;;;;;;;;;;;;16.85;48.98;101476.50;6230719;22;20003;-84
2023/02/24 02:29:22;;;;;;;3.15;1.40;;;;;;;16.85;48.94;101471.28;6263146;22;19946;-89
2023/02/24 02:32:30;;;;;;;3.08;1.45;;;;;;;16.85;49.06;101479.09;6252217;22;20061;-89
2023/02/24 02:35:05;;;;;;;3.22;1.35;;;;;;;16.85;49.03;101473.00;6252763;22;20011;-89
2023/02/24 02:37:47;;;;;;;2.88;1.30;;;;;;;16.85;49.13;101467.81;6251996;22;20004;-89
2023/02/24 02:40:23;;;;;;;2.72;1.33;;;;;;;16.86;49.17;101461.75;6253042;22;20016;-89
2023/02/24 02:42:54;;;;;;;3.28;1.10;;;;;;;16.86;49.19;101453.97;6252896;22;20012;-89
2023/02/24 02:45:47;;;;;;;3.30;1.27;;;;;;;16.86;49.41;101451.34;6252468;22;20061;-90
2023/02/24 02:48:27;;;;;;;2.97;1.20;;;;;;;16.88;49.00;101446.19;6252358;22;20010;-90
2023/02/24 02:50:54;;;;;;;2.70;1.15;;;;;;;16.88;49.00;101443.56;6252197;22;20003;-90
2023/02/24 02:53:42;;;;;;;1.85;1.00;;;;;;;16.88;49.11;101440.97;6254635;22;20376;-89
2023/02/24 02:56:15;;;;;;;2.90;1.10;;;;;;;16.88;49.16;101425.38;6281723;22;20010;-87
2023/02/24 02:58:46;;;;;;;2.75;0.90;;;;;;;16.89;48.98;101427.09;6254570;22;20003;-89
2023/02/24 03:01:17;;;;;;;2.83;1.23;;;;;;;16.88;48.98;101427.97;6281142;22;20007;-88
2023/02/24 03:03:48;;;;;;;2.53;1.00;;;;;;;16.90;49.09;101424.50;6253379;22;20015;-88
2023/02/24 03:06:30;;;;;;;1.55;0.90;;;;;;;16.90;49.27;101421.91;6254230;22;20003;-89
2023/02/24 03:09:22;;;;;;;2.10;0.90;;;;;;;16.88;49.14;101408.03;6253667;22;20447;-89
2023/02/24 03:11:52;;;;;;;2.13;1.10;;;;;;;16.89;48.96;101403.69;6254675;22;20026;-88
2023/02/24 03:14:24;;;;;;;2.22;1.00;;;;;;;16.90;48.92;101406.31;6254810;22;20014;-89
2023/02/24 03:16:52;;;;;;;2.05;1.00;;;;;;;16.89;48.97;101399.38;6254419;22;19999;-89
2023/02/24 03:19:25;;;;;;;2.08;1.00;;;;;;;16.90;48.94;101392.44;6280389;22;20077;-88
2023/02/24 03:22:14;;;;;;;2.63;1.00;;;;;;;16.90;48.84;101384.63;6252875;22;20089;-88
2023/02/24 03:24:41;;;;;;;1.75;0.98;;;;;;;16.91;49.10;101378.59;6253079;22;20038;-88
2023/02/24 03:27:55;;;;;;;2.05;1.00;;;;;;;16.90;49.03;101375.13;6228381;22;20337;-90
2023/02/24 03:30:27;;;;;;;1.48;0.88;;;;;;;16.89;49.11;101373.38;6233796;22;20015;-88
2023/02/24 03:33:15;;;;;;;2.42;0.98;;;;;;;16.91;48.94;101368.19;6279995;22;20023;-87
2023/02/24 03:35:41;;;;;;;2.25;1.00;;;;;;;16.88;49.13;101360.38;6252966;22;20010;-88
2023/02/24 03:38:10;;;;;;;1.83;0.82;;;;;;;16.87;49.28;101364.69;6203208;22;20015;-88
2023/02/24 03:40:37;;;;;;;2.58;1.00;;;;;;;16.87;49.30;101359.50;6253059;22;20060;-88
2023/02/24 03:43:20;;;;;;;2.00;1.00;;;;;;;16.86;49.11;101357.78;6227932;22;20083;-88
2023/02/24 03:45:47;;;;;;;2.70;0.93;;;;;;;16.87;49.22;101354.31;6253135;22;20003;-88
2023/02/24 03:48:13;;;;;;;1.95;0.88;;;;;;;16.86;49.09;101353.44;6228123;22;20325;-86
2023/02/24 03:50:40;;;;;;;1.90;0.80;;;;;;;16.84;49.23;101349.97;6228039;22;20007;-88
2023/02/24 03:53:36;;;;;;;2.97;1.10;;;;;;;16.83;49.24;101345.66;6253296;22;20011;-88
2023/02/24 03:56:21;;;;;;;1.60;0.80;;;;;;;16.83;49.17;101336.97;6252945;22;20049;-89
2023/02/24 03:59:01;;;;;;;1.60;0.80;;;;;;;16.83;49.21;101331.75;6280738;22;20073;-87
2023/02/24 04:01:56;;;;;;;1.80;0.73;;;;;;;16.82;49.32;101330.91;6253533;22;20026;-89
2023/02/24 04:04:45;;;;;;;1.63;0.90;;;;;;;16.83;49.21;101340.44;6252584;22;20024;-88
2023/02/24 04:07:40;;;;;;;2.55;1.13;;;;;;;16.82;49.23;101338.69;6241015;22;20373;-88
2023/02/24 04:10:28;;;;;;;1.63;0.85;;;;;;;16.82;49.47;101325.69;6252946;22;20051;-88
2023/02/24 04:12:53;;;;;;;1.98;0.93;;;;;;;16.81;49.38;101320.50;6253337;22;20086;-88
2023/02/24 04:15:28;;;;;;;2.03;0.80;;;;;;;16.84;49.27;101320.50;6252450;22;20031;-87
2023/02/24 04:18:00;;;;;;;1.98;0.90;;;;;;;16.82;49.11;101317.03;6280208;22;20004;-89
2023/02/24 04:20:29;;;;;;;2.03;0.65;;;;;;;16.84;49.33;101320.50;6279863;22;19999;-88
2023/02/24 04:23:01;;;;;;;2.72;1.00;;;;;;;16.85;49.27;101309.25;6253484;22;20495;-88
2023/02/24 04:25:28;;;;;;;2.13;0.80;;;;;;;16.84;49.08;101308.38;6253292;22;20004;-89
2023/02/24 04:27:57;;;;;;;1.70;0.70;;;;;;;16.83;49.03;101301.47;6252874;22;20062;-89
2023/02/24 04:30:28;;;;;;;1.85;1.00;;;;;;;16.84;49.32;101290.19;6252823;22;19995;-86
2023/02/24 04:32:55;;;;;;;2.35;0.90;;;;;;;16.84;49.11;101291.94;6253196;22;20329;-89
2023/02/24 04:35:21;;;;;;;2.78;0.90;;;;;;;16.86;49.00;101290.19;6279909;22;20023;-88
2023/02/24 04:37:49;;;;;;;1.70;0.80;;;;;;;16.85;49.29;101285.84;6227461;22;20340;-88
2023/02/24 04:40:16;;;;;;;1.65;0.80;;;;;;;16.85;49.22;101278.03;6253996;22;20005;-88
2023/02/24 04:42:45;;;;;;;1.63;0.80;;;;;;;16.85;49.12;101272.84;6252737;22;20008;-88
2023/02/24 04:45:12;;;;;;;2.05;0.80;;;;;;;16.82;49.14;101265.91;6228243;22;20031;-88
2023/02/24 04:47:41;;;;;;;1.63;0.77;;;;;;;16.83;49.34;101269.38;6251335;22;20018;-83
2023/02/24 04:50:10;;;;;;;1.95;0.90;;;;;;;16.82;49.10;101276.31;6226475;22;20023;-82
2023/02/24 04:52:35;;;;;;;1.70;0.90;;;;;;;16.82;49.42;101271.13;6226805;22;20007;-83
2023/02/24 04:55:08;;;;;;;1.85;0.80;;;;;;;16.82;49.30;101263.31;6200795;22;20111;-80
2023/02/24 04:57:36;;;;;;;2.30;0.80;;;;;;;16.82;49.40;101258.13;6227385;22;20003;-79
2023/02/24 05:00:19;;;;;;;1.95;1.05;;;;;;;16.83;49.42;101251.19;6251024;22;20007;-81
2023/02/24 05:02:47;;;;;;;1.52;0.80;;;;;;;16.81;49.35;101251.22;6250475;22;20100;-80
2023/02/24 05:05:13;;;;;;;2.65;0.90;;;;;;;16.81;49.18;101248.59;6250682;22;20083;-80
2023/02/24 05:07:39;;;;;;;2.17;0.80;;;;;;;16.81;49.23;101245.13;6201256;22;20008;-83
2023/02/24 05:10:05;;;;;;;1.92;0.80;;;;;;;16.80;49.40;101241.66;6230574;22;20016;-82
2023/02/24 05:12:31;;;;;;;1.48;0.90;;;;;;;16.81;49.32;101238.22;6254662;22;19999;-85
2023/02/24 05:15:00;;;;;;;1.83;0.90;;;;;;;16.82;49.14;101234.72;6228701;22;20006;-82
2023/02/24 05:17:26;;;;;;;1.80;0.70;;;;;;;16.81;49.34;101226.91;6227335;22;20003;-79
2023/02/24 05:22:35;;;;;;;2.13;0.90;;;;;;;16.82;49.28;101219.13;6255227;22;20062;-80
2023/02/24 05:25:02;;;;;;;1.52;0.80;;;;;;;16.83;49.16;101207.00;6225488;22;20003;-81
2023/02/24 05:27:27;;;;;;;1.98;0.70;;;;;;;16.83;49.10;101204.41;6250808;22;20012;-80
2023/02/24 05:29:54;;;;;;;1.65;0.98;;;;;;;16.82;49.01;101194.88;6250719;22;20000;-78
2023/02/24 05:32:20;;;;;;;1.45;0.70;;;;;;;16.82;49.24;101189.69;6276148;22;20011;-79
2023/02/24 05:34:46;;;;;;;1.58;0.80;;;;;;;16.83;49.27;101189.69;6200685;22;20011;-80
2023/02/24 05:37:15;;;;;;;3.10;0.80;;;;;;;16.83;49.35;101181.91;6250615;22;20008;-79
2023/02/24 05:39:41;;;;;;;2.85;0.90;;;;;;;16.84;49.14;101174.97;6201479;22;20099;-81
2023/02/24 05:42:06;;;;;;;2.72;0.90;;;;;;;16.89;49.33;101164.53;6225721;22;20039;-80
2023/02/24 05:44:34;;;;;;;3.08;0.82;;;;;;;16.89;49.28;101159.34;6277787;22;20010;-85
2023/02/24 05:47:00;;;;;;;1.55;0.82;;;;;;;16.89;49.30;101155.00;6201427;22;20000;-80
2023/02/24 05:49:30;;;;;;;2.58;1.02;;;;;;;16.88;49.25;101147.25;6250717;22;20008;-81
2023/02/24 05:52:00;;;;;;;1.75;0.75;;;;;;;16.89;49.36;101144.63;6277642;22;20006;-81
2023/02/24 05:54:31;;;;;;;1.25;0.80;;;;;;;16.90;49.31;101138.56;6250848;22;20023;-82
2023/02/24 05:57:02;;;;;;;1.70;0.80;;;;;;;16.90;49.22;101146.34;6250825;22;20055;-82
2023/02/24 05:59:33;;;;;;;2.28;1.10;;;;;;;16.91;49.31;101139.41;6250339;22;20000;-81
2023/02/24 06:02:05;;;;;;;2.25;0.73;;;;;;;16.92;49.37;101136.81;6250075;22;20003;-81
2023/02/24 06:04:38;;;;;;;1.30;0.70;;;;;;;16.93;49.34;101122.09;6249957;22;20015;-78
2023/02/24 06:07:27;;;;;;;2.58;0.88;;;;;;;16.92;49.40;101118.63;6226345;22;20022;-80
2023/02/24 06:09:56;;;;;;;2.13;0.90;;;;;;;16.92;49.16;101118.63;6250584;22;20030;-80
2023/02/24 06:12:28;;;;;;;2.40;0.90;;;;;;;16.92;49.38;101116.03;6250071;22;20043;-79
2023/02/24 06:14:54;;;;;;;2.00;0.77;;;;;;;16.93;49.49;101119.50;6277285;22;20325;-80
2023/02/24 06:17:20;;;;;;;2.00;0.90;;;;;;;16.93;49.34;101111.69;6277275;22;20000;-80
2023/02/24 06:19:49;;;;;;;1.17;0.55;;;;;;;16.93;49.36;101103.88;6250532;22;20423;-80
2023/02/24 06:22:18;;;;;;;1.02;0.70;;;;;;;16.94;49.25;101096.09;6250067;22;20022;-82
2023/02/24 06:24:44;;;;;;;2.00;0.77;;;;;;;16.93;49.40;101096.09;6250350;22;19996;-81
2023/02/24 06:27:18;;;;;;;3.20;0.80;;;;;;;16.91;49.19;101080.50;6276933;22;20004;-83
2023/02/24 06:29:44;;;;;;;;;;;;;;;16.93;49.21;101077.91;6250647;22;19999;-84
2023/02/24 06:32:10;;;;;;;1.70;0.73;;;;;;;16.93;49.56;101083.09;6277251;22;19903;-82
2023/02/24 06:34:37;;;;;;;2.58;0.90;;;;;;;16.92;49.63;101077.03;6250042;22;20082;-81
2023/02/24 06:37:04;;;;;;;1.95;0.80;;;;;;;16.92;49.67;101065.75;6250239;22;19996;-85
2023/02/24 06:39:36;;;;;;;2.92;0.80;;;;;;;16.93;49.19;101067.50;6225539;22;20004;-81
2023/02/24 06:42:03;;;;;;;2.97;1.10;;;;;;;16.94;49.79;101067.50;6227149;22;20007;-85
2023/02/24 06:44:34;;;;;;;3.13;1.08;;;;;;;16.94;49.78;101064.91;6225798;22;20010;-84
2023/02/24 06:47:00;;;;;;;6.05;2.33;;;;;;;17.00;49.87;101066.59;6249880;22;20078;-78
2023/02/24 06:49:26;;;;;;;7.10;2.17;;;;;;;16.99;49.75;101059.69;6277268;22;20432;-83
2023/02/24 06:51:53;;;;;;;6.32;2.42;;;;;;;16.96;49.67;101057.06;6249928;22;20031;-80
2023/02/24 06:54:21;;;;;;;8.82;2.75;;;;;;;16.95;49.78;101058.81;6277262;22;20007;-77
2023/02/24 06:56:47;;;;;;;5.18;2.08;;;;;;;16.96;49.91;101052.75;6251256;22;19999;-80
2023/02/24 06:59:20;;;;;;;8.10;2.28;;;;;;;16.94;49.92;101049.31;6250279;22;20078;-83
2023/02/24 07:01:46;;;;;;;8.00;2.30;;;;;;;16.95;49.96;101035.41;6251509;22;20053;-79
2023/02/24 07:06:40;;;;;;;10.95;2.15;;;;;;;16.93;49.73;101042.34;6250746;22;20023;-80
2023/02/24 07:09:09;;;;;;;9.32;2.30;;;;;;;16.96;49.66;101046.69;6276686;22;20007;-80
2023/02/24 07:11:36;;;;;;;6.60;2.25;;;;;;;16.96;49.85;101036.28;6249580;22;20496;-79
2023/02/24 07:14:04;;;;;;;6.53;2.40;;;;;;;16.97;49.54;101038.03;6276922;22;20010;-78
2023/02/24 07:16:30;;;;;;;9.82;2.60;;;;;;;16.97;49.77;101040.63;6224979;22;20004;-81
2023/02/24 07:18:57;;;;;;;5.43;2.25;;;;;;;16.97;49.67;101038.88;6250694;22;20008;-80
2023/02/24 07:21:25;;;;;;;9.18;2.20;;;;;;;16.97;49.61;101051.03;6251295;22;20083;-79
2023/02/24 07:23:55;;;;;;;5.28;2.20;;;;;;;16.97;49.57;101038.88;6250437;22;20061;-82
2023/02/24 07:26:23;;;;;;;5.70;2.03;;;;;;;16.97;49.55;101038.88;6250227;22;20007;-81
2023/02/24 07:28:49;;;;;;;6.40;1.80;;;;;;;16.99;49.55;101037.13;6250867;22;20332;-79
2023/02/24 07:31:21;;;;;;;6.90;1.60;;;;;;;16.98;49.48;101034.53;6251056;22;20317;-82
2023/02/24 07:33:47;;;;;;;4.18;1.98;;;;;;;16.97;49.46;101031.09;6277744;22;20004;-82
2023/02/24 07:36:21;;;;;;;3.70;1.70;;;;;;;16.99;49.47;101024.16;6251075;22;20000;-81
2023/02/24 07:38:52;;;;;;;4.63;1.88;;;;;;;16.98;49.50;101027.59;6252137;22;20011;-81
2023/02/24 07:41:25;;;;;;;5.68;2.10;;;;;;;16.99;49.25;101020.69;6253975;22;20012;-83
2023/02/24 07:43:54;;;;;;;6.53;1.92;;;;;;;17.01;49.37;101029.34;6227962;22;20096;-80
2023/02/24 07:46:27;;;;;;;4.80;1.75;;;;;;;16.98;49.45;101018.94;6280089;22;20031;-79
2023/02/24 07:48:57;;;;;;;3.42;1.85;;;;;;;17.02;49.32;101015.47;6252478;22;20014;-81
2023/02/24 07:51:25;;;;;;;4.20;1.50;;;;;;;17.00;49.08;101010.25;6279141;22;20004;-78
2023/02/24 07:53:55;;;;;;;3.78;1.60;;;;;;;17.00;49.10;101010.25;6229639;22;20012;-82
2023/02/24 07:56:25;;;;;;;4.05;1.60;;;;;;;17.01;49.16;101017.19;6283334;22;20000;-83
2023/02/24 07:59:00;;;;;;;3.42;1.48;;;;;;;17.01;49.18;101003.34;6254896;22;20011;-80
2023/02/24 08:01:38;;;;;;;3.65;1.33;;;;;;;17.01;49.09;101004.19;6255299;22;20377;-82
2023/02/24 08:04:07;;;;;;;4.22;1.42;;;;;;;17.01;49.07;101003.34;6252861;22;20042;-82
2023/02/24 08:06:44;;;;;;;3.40;1.60;;;;;;;17.03;49.28;100996.41;6278691;22;20006;-78
2023/02/24 08:09:45;;;;;;;4.15;1.50;;;;;;;17.02;49.18;100994.66;6278990;22;20014;-82
2023/02/24 08:12:07;;;;;;;4.22;1.52;;;;;;;17.03;49.04;100991.22;6278698;22;20010;-80
2023/02/24 08:14:33;;;;;;;3.67;1.30;;;;;;;17.03;49.14;100996.41;6226504;22;20011;-79
2023/02/24 08:17:04;;;;;;;3.78;1.60;;;;;;;17.03;49.04;100976.47;6251114;22;20008;-78
2023/02/24 08:19:46;;;;;;;4.90;1.75;;;;;;;17.04;48.99;100972.97;6278534;22;20008;-78
2023/02/24 08:22:19;;;;;;;5.18;1.52;;;;;;;17.04;49.06;100972.97;6225839;22;20015;-77
2023/02/24 08:24:55;;;;;;;3.63;1.58;;;;;;;17.04;48.97;100969.53;6251823;22;20425;-79
2023/02/24 08:27:30;;;;;;;3.35;1.48;;;;;;;17.05;49.16;100973.88;6251178;22;20035;-80
2023/02/24 08:29:58;;;;;;;3.45;1.13;;;;;;;17.05;48.92;100971.25;6250918;22;20057;-79
2023/02/24 08:32:35;;;;;;;3.22;1.50;;;;;;;17.05;49.22;100963.47;6226878;22;20416;-81
2023/02/24 08:35:16;;;;;;;4.93;1.23;;;;;;;17.05;49.28;100964.31;6251319;22;20026;-82
2023/02/24 08:37:46;;;;;;;3.95;1.65;;;;;;;17.05;49.15;100959.13;6251532;22;20045;-84
2023/02/24 08:43:18;;;;;;;3.85;1.30;;;;;;;17.06;49.05;100941.78;6278728;22;20014;-81
2023/02/24 08:45:55;;;;;;;3.47;1.27;;;;;;;17.06;49.10;100945.22;6251243;22;20082;-79
2023/02/24 08:48:42;;;;;;;3.53;1.60;;;;;;;17.08;49.10;100944.38;6278361;22;20110;-82
2023/02/24 08:51:27;;;;;;;4.78;1.63;;;;;;;17.08;49.04;100939.19;6250757;22;20000;-82
2023/02/24 08:53:54;;;;;;;4.18;1.35;;;;;;;17.08;49.14;100931.38;6278281;22;20367;-82
2023/02/24 08:56:24;;;;;;;3.53;1.50;;;;;;;17.09;49.05;100923.53;6250943;22;20007;-83
2023/02/24 08:59:06;;;;;;;3.38;1.35;;;;;;;17.08;49.12;100920.97;6251201;22;20337;-82
2023/02/24 09:01:38;;;;;;;3.78;1.50;;;;;;;17.09;49.17;100925.28;6278455;22;20007;-81
2023/02/24 09:04:12;;;;;;;4.97;1.70;;;;;;;17.08;49.15;100920.97;6250752;22;20480;-83
2023/02/24 09:06:43;;;;;;;4.03;1.42;;;;;;;17.06;49.17;100916.63;6226282;22;20020;-84
2023/02/24 09:09:17;;;;;;;3.50;1.50;;;;;;;17.08;49.19;100914.03;6280017;22;20003;-84
2023/02/24 09:11:46;;;;;;;2.33;1.50;;;;;;;17.09;49.32;100904.50;6251019;22;20004;-81
2023/02/24 09:14:19;;;;;;;3.80;1.50;;;;;;;17.09;49.43;100894.94;6251192;22;20008;-81
2023/02/24 09:17:01;;;;;;;3.07;1.30;;;;;;;17.10;49.12;100898.44;6278727;22;19996;-83
2023/02/24 09:25:48;;;;;;;;;;;;;;;17.11;49.28;100879.34;6279141;22;20011;-80
2023/02/24 09:28:27;;;;;;;2.95;1.40;;;;;;;17.11;49.08;100877.59;6250954;22;19953;-79
2023/02/24 09:31:03;;;;;;;6.07;1.70;;;;;;;17.13;49.24;100880.19;6278466;22;20011;-80
2023/02/24 09:33:40;;;;;;;4.07;1.58;;;;;;;17.37;49.12;100880.00;6277846;22;20004;-81
2023/02/24 09:36:19;;;;;;;6.38;1.73;;;;;;;17.47;49.10;100868.66;6251168;22;20081;-82
2023/02/24 09:44:36;;;;;;;5.05;2.03;;;;;;;17.57;48.80;100858.16;6273211;22;20087;-78
2023/02/24 09:47:18;;;;;;;4.70;1.52;;;;;;;17.46;48.71;100860.84;6250619;22;20053;-79
2023/02/24 09:49:54;;;;;;;4.95;1.90;;;;;;;17.36;48.48;100857.50;6250749;22;19999;-78
2023/02/24 09:52:38;;;;;;;6.10;1.77;;;;;;;17.33;48.79;100864.44;6250194;22;20003;-80
2023/02/24 09:55:29;;;;;;;4.30;1.73;;;;;;;17.30;48.74;100862.72;6250427;22;20011;-81
2023/02/24 09:58:36;;;;;;;4.93;1.88;;;;;;;17.28;49.13;100852.34;6250455;22;20004;-82
2023/02/24 10:01:41;;;;;;;5.97;1.65;;;;;;;17.30;49.03;100844.53;6249632;22;20008;-81
2023/02/24 10:04:22;;;;;;;4.28;1.58;;;;;;;17.30;48.71;100849.72;6250117;22;20003;-81
2023/02/24 10:06:57;;;;;;;4.20;1.88;;;;;;;17.32;48.84;100845.38;6250266;22;20004;-79
2023/02/24 10:09:33;;;;;;;3.67;1.67;;;;;;;17.32;48.84;100837.56;6250509;22;20018;-81
2023/02/24 10:12:22;;;;;;;5.10;1.50;;;;;;;17.32;48.80;100832.38;6250198;22;20003;-80
2023/02/24 10:15:19;;;;;;;2.53;1.25;;;;;;;17.34;48.66;100835.81;6277096;22;20379;-78
2023/02/24 10:17:54;;;;;;;3.38;1.48;;;;;;;17.35;48.54;100840.13;6277933;22;20095;-81
2023/02/24 10:20:39;;;;;;;3.35;1.50;;;;;;;17.34;48.81;100835.81;6250654;22;20003;-78
2023/02/24 10:23:11;;;;;;;2.85;1.42;;;;;;;17.35;49.05;100849.69;6250618;22;20004;-80
2023/02/24 10:25:39;;;;;;;3.42;1.52;;;;;;;17.35;48.71;100849.69;6252524;22;20003;-79
2023/02/24 10:28:04;;;;;;;3.17;1.40;;;;;;;17.39;48.79;100834.03;6281399;22;19995;-80
2023/02/24 10:30:45;;;;;;;4.45;1.45;;;;;;;17.40;48.85;100824.53;6253717;22;20008;-79
2023/02/24 10:33:27;;;;;;;2.85;1.27;;;;;;;17.41;48.86;100827.09;6254535;22;20022;-81
2023/02/24 10:36:12;;;;;;;3.30;1.50;;;;;;;17.44;48.86;100824.47;6250938;22;20054;-78
2023/02/24 10:38:49;;;;;;;3.13;1.48;;;;;;;17.45;48.93;100828.78;6250281;22;20501;-78
2023/02/24 10:41:16;;;;;;;4.72;1.30;;;;;;;17.48;48.59;100826.19;6225472;22;20035;-79
2023/02/24 10:43:54;;;;;;;3.45;1.40;;;;;;;17.52;48.81;100823.53;6250265;22;20054;-79
2023/02/24 10:46:35;;;;;;;2.65;1.30;;;;;;;17.54;48.59;100819.19;6250309;22;20007;-79
2023/02/24 10:49:08;;;;;;;2.35;1.30;;;;;;;17.58;48.59;100818.28;6277430;22;20328;-78
2023/02/24 10:51:40;;;;;;;4.15;1.15;;;;;;;17.63;48.49;100814.72;6248647;22;20482;-79
2023/02/24 10:54:33;;;;;;;2.65;1.20;;;;;;;17.67;48.39;100810.38;6277046;22;20377;-80
2023/02/24 10:57:35;;;;;;;3.80;1.95;;;;;;;17.68;48.27;100814.69;6250371;22;20007;-78
2023/02/24 11:02:55;;;;;;;4.93;1.75;;;;;;;17.73;48.54;100822.47;6279545;22;20007;-78
2023/02/24 11:17:13;;;;;;;8.93;1.80;;;;;;;17.82;48.37;100812.84;6233105;22;20030;-79
2023/02/24 11:17:25;;;;;;;4.05;1.50;;;;;;;17.83;48.65;100804.16;6256348;22;20018;-78
2023/02/24 11:20:01;;;;;;;2.42;1.13;;;;;;;17.81;48.43;100800.69;6251915;22;20070;-79
2023/02/24 11:22:31;;;;;;;3.33;1.38;;;;;;;17.84;48.47;100798.06;6251651;22;20432;-79
2023/02/24 11:25:04;;;;;;;3.80;1.60;;;;;;;17.92;48.24;100799.72;6279045;22;19995;-79
2023/02/24 11:27:29;;;;;;;2.83;1.20;;;;;;;17.95;48.17;100792.75;6251927;22;20340;-79
2023/02/24 11:30:01;;;;;;;5.07;1.40;;;;;;;17.97;48.08;100788.38;6251800;22;20008;-77
2023/02/24 11:32:44;;;;;;;3.05;1.40;;;;;;;17.96;48.17;100789.25;6278622;22;20027;-79
2023/02/24 11:35:19;;;;;;;3.43;1.30;;;;;;;17.95;48.12;100784.94;6251797;22;20057;-78
2023/02/24 11:38:08;;;;;;;3.38;1.50;;;;;;;17.87;48.44;100799.78;6278729;22;20223;-79
2023/02/24 11:40:42;;;;;;;3.85;1.45;;;;;;;17.86;48.55;100798.91;6257512;22;20016;-79
2023/02/24 11:43:07;;;;;;;3.08;1.38;;;;;;;17.89;48.51;100779.78;6251661;22;20004;-80
2023/02/24 11:45:47;;;;;;;3.08;1.27;;;;;;;17.91;48.43;100785.84;6251634;22;20332;-79
2023/02/24 11:48:55;;;;;;;4.35;1.70;;;;;;;17.93;48.30;100784.09;6278498;22;20030;-79
2023/02/24 11:51:31;;;;;;;3.63;1.60;;;;;;;17.85;48.38;100785.91;6240435;22;20078;-79
2023/02/24 11:54:04;;;;;;;4.43;1.52;;;;;;;17.81;48.55;100784.19;6278422;22;20082;-80
2023/02/24 11:56:35;;;;;;;3.97;1.53;;;;;;;17.80;48.68;100772.91;6251214;22;20011;-77
2023/02/24 11:59:11;;;;;;;4.15;1.75;;;;;;;17.84;48.61;100766.81;6278297;22;20073;-77
2023/02/24 12:01:41;;;;;;;4.07;1.75;;;;;;;17.83;48.46;100767.72;6250897;22;19999;-77
2023/02/24 12:04:18;;;;;;;4.07;1.70;;;;;;;17.79;48.72;100770.31;6251016;22;19999;-77
2023/02/24 12:06:56;;;;;;;3.47;1.50;;;;;;;17.77;48.63;100766.88;6278184;22;20018;-77
2023/02/24 12:09:29;;;;;;;3.08;1.60;;;;;;;17.70;48.67;100766.06;6278225;22;20011;-77
2023/02/24 12:11:57;;;;;;;3.38;1.30;;;;;;;17.67;48.90;100768.72;6251101;22;20146;-78
2023/02/24 12:14:31;;;;;;;2.92;1.50;;;;;;;17.72;48.83;100769.53;6278086;22;20431;-77
2023/02/24 12:17:16;;;;;;;3.92;1.63;;;;;;;17.77;48.55;100759.94;6250858;22;20007;-79
2023/02/24 12:20:03;;;;;;;4.80;1.80;;;;;;;17.83;48.47;100764.22;6252068;22;20003;-78
2023/02/24 12:22:44;;;;;;;3.85;1.67;;;;;;;17.79;48.56;100760.78;6252487;22;20004;-79
2023/02/24 12:25:13;;;;;;;3.25;1.58;;;;;;;17.75;48.75;100758.25;6250642;22;19995;-79
2023/02/24 12:28:09;;;;;;;3.17;1.45;;;;;;;17.74;48.80;100756.50;6251145;22;20007;-78
2023/02/24 12:31:02;;;;;;;3.35;1.52;;;;;;;17.81;48.49;100745.13;6282832;22;20006;-77